Time;durP1;ratioP1;P1;durP2;ratioP2;P2;SDS_P1;SDS_P2;PMS_P1;PMS_P2;Temp;Humidity;BMP_temperature;BMP_pressure;BME280_temperature;BME280_humidity;BME280_pressure;Samples;Min_cycle;Max_cycle;Signal;HPM_P1;HPM_P2
2022/11/21 00:01:15;;;;;;;9.10;8.30;;;;;;;0.93;83.80;99556.34;5011484;28;20207;-73
2022/11/21 00:03:41;;;;;;;12.60;9.20;;;;;;;0.91;84.11;99550.34;5012093;28;20209;-73
2022/11/21 00:06:08;;;;;;;13.77;9.43;;;;;;;0.84;84.36;99538.31;5011435;28;20592;-73
2022/11/21 00:08:34;;;;;;;11.00;9.90;;;;;;;0.79;84.58;99520.31;5011839;28;20223;-73
2022/11/21 00:11:01;;;;;;;11.10;9.87;;;;;;;0.88;85.21;99502.38;5011412;28;20221;-73
2022/11/21 00:13:28;;;;;;;10.83;9.87;;;;;;;0.90;84.44;99495.53;5011621;28;20208;-72
2022/11/21 00:15:54;;;;;;;10.53;9.50;;;;;;;0.92;85.03;99501.53;5011459;28;20212;-73
2022/11/21 00:18:22;;;;;;;11.20;10.10;;;;;;;0.85;84.68;99499.78;5011776;28;20253;-73
2022/11/21 00:20:48;;;;;;;11.27;10.17;;;;;;;0.86;85.37;99473.25;5011249;28;20211;-73
2022/11/21 00:23:15;;;;;;;12.23;10.93;;;;;;;0.89;85.38;99478.41;5011711;28;20211;-73
2022/11/21 00:25:41;;;;;;;11.87;10.67;;;;;;;0.81;85.90;99468.94;5011570;28;20214;-73
2022/11/21 00:28:08;;;;;;;13.07;11.87;;;;;;;0.79;85.93;99440.66;5011387;28;20237;-73
2022/11/21 00:30:34;;;;;;;12.23;11.10;;;;;;;0.82;86.04;99437.28;5011086;28;20576;-73
2022/11/21 00:33:01;;;;;;;12.33;11.13;;;;;;;0.83;86.30;99428.72;5011608;28;20207;-73
2022/11/21 00:35:30;;;;;;;13.37;11.23;;;;;;;0.82;85.82;99427.00;5011626;28;20215;-73
2022/11/21 00:37:57;;;;;;;13.33;11.93;;;;;;;0.74;86.20;99421.84;5011497;28;20620;-73
2022/11/21 00:40:23;;;;;;;12.60;11.30;;;;;;;0.74;86.24;99404.69;5011148;28;20212;-73
2022/11/21 00:42:50;;;;;;;11.50;10.40;;;;;;;0.77;86.94;99399.59;5011810;28;20220;-73
2022/11/21 00:45:17;;;;;;;11.27;10.17;;;;;;;0.78;86.20;99398.72;5015245;28;20210;-73
2022/11/21 00:47:43;;;;;;;11.53;10.43;;;;;;;0.77;87.10;99388.44;5014909;28;20708;-73
2022/11/21 00:50:10;;;;;;;11.43;10.33;;;;;;;0.77;86.63;99384.19;5014818;28;20212;-73
2022/11/21 00:52:38;;;;;;;11.20;10.10;;;;;;;0.86;86.94;99391.03;5014970;28;20207;-73
2022/11/21 00:55:05;;;;;;;12.70;10.13;;;;;;;0.84;86.11;99403.03;5014980;28;20217;-73
2022/11/21 00:57:31;;;;;;;11.83;10.40;;;;;;;0.84;86.67;99397.03;5014521;28;20233;-73
2022/11/21 00:59:58;;;;;;;11.23;10.23;;;;;;;0.86;86.39;99385.06;5014847;28;20584;-72
2022/11/21 01:02:24;;;;;;;11.53;10.43;;;;;;;0.81;86.28;99377.31;5014885;28;20237;-73
2022/11/21 01:04:51;;;;;;;12.03;10.93;;;;;;;0.82;86.02;99379.06;5014858;28;20218;-73
2022/11/21 01:07:17;;;;;;;11.77;10.57;;;;;;;0.85;86.33;99385.91;5014641;28;20224;-73
2022/11/21 01:09:45;;;;;;;11.00;10.00;;;;;;;0.84;86.11;99387.63;5014889;28;20700;-73
2022/11/21 01:12:11;;;;;;;11.37;10.37;;;;;;;0.83;86.21;99403.03;5014323;28;20208;-73
2022/11/21 01:14:38;;;;;;;10.27;9.37;;;;;;;0.85;86.64;99412.44;5015191;28;20234;-73
2022/11/21 01:17:04;;;;;;;11.20;9.47;;;;;;;0.87;86.64;99409.88;5014542;28;20240;-73
2022/11/21 01:19:31;;;;;;;11.47;10.40;;;;;;;0.84;86.75;99410.75;5014737;28;20212;-73
2022/11/21 01:21:57;;;;;;;11.37;10.20;;;;;;;0.80;87.06;99414.16;5014187;28;20677;-72
2022/11/21 01:24:24;;;;;;;12.83;11.53;;;;;;;0.76;86.97;99404.72;5014600;28;20214;-73
2022/11/21 01:26:53;;;;;;;11.67;10.57;;;;;;;0.84;86.45;99382.47;5013950;28;20236;-73
2022/11/21 01:29:19;;;;;;;10.50;9.50;;;;;;;0.88;86.51;99384.19;5014570;28;20214;-73
2022/11/21 01:31:46;;;;;;;11.13;10.03;;;;;;;0.89;86.90;99387.63;5013962;28;20216;-73
2022/11/21 01:34:13;;;;;;;13.87;11.27;;;;;;;0.76;86.96;99386.75;5014240;28;20231;-73
2022/11/21 01:36:40;;;;;;;11.07;10.03;;;;;;;0.76;87.79;99366.19;5013937;28;20363;-73
2022/11/21 01:39:08;;;;;;;10.80;9.70;;;;;;;0.77;87.81;99357.63;5014066;28;20203;-73
2022/11/21 01:41:36;;;;;;;10.17;9.20;;;;;;;0.83;87.59;99347.34;5013820;28;20211;-73
2022/11/21 01:44:14;;;;;;;9.87;9.03;;;;;;;0.85;87.23;99349.94;5014072;28;20214;-73
2022/11/21 01:46:41;;;;;;;11.00;9.13;;;;;;;0.79;87.71;99343.94;5013939;28;20229;-73
2022/11/21 01:49:10;;;;;;;10.50;9.50;;;;;;;0.75;88.11;99351.63;5014058;28;20218;-73
2022/11/21 01:51:41;;;;;;;10.13;9.17;;;;;;;0.77;88.29;99339.63;5013439;28;20613;-73
2022/11/21 01:54:13;;;;;;;10.87;9.83;;;;;;;0.76;87.64;99343.91;5013700;28;20207;-73
2022/11/21 01:56:46;;;;;;;10.50;9.50;;;;;;;0.84;87.96;99340.53;5013350;28;20239;-73
2022/11/21 01:59:21;;;;;;;10.27;9.27;;;;;;;0.81;87.87;99343.94;5013667;28;20212;-73
2022/11/21 02:01:51;;;;;;;8.33;7.63;;;;;;;0.70;87.18;99354.19;5013327;28;20218;-73
2022/11/21 02:04:18;;;;;;;8.87;7.77;;;;;;;0.79;87.21;99361.03;5013533;28;20219;-73
2022/11/21 02:06:44;;;;;;;8.07;7.20;;;;;;;0.84;87.05;99369.63;5013408;28;20234;-73
2022/11/21 02:09:11;;;;;;;8.10;7.30;;;;;;;0.81;86.61;99377.31;5013364;28;20706;-73
2022/11/21 02:11:42;;;;;;;7.30;6.60;;;;;;;0.78;87.78;99378.19;5013102;28;20576;-73
2022/11/21 02:14:09;;;;;;;11.50;9.10;;;;;;;0.78;86.85;99370.47;5013472;28;20214;-73
2022/11/21 02:16:37;;;;;;;11.07;9.70;;;;;;;0.82;87.35;99367.94;5013318;28;20224;-73
2022/11/21 02:19:04;;;;;;;11.50;10.40;;;;;;;0.85;87.82;99368.75;5013504;28;20236;-73
2022/11/21 02:21:42;;;;;;;13.27;11.10;;;;;;;0.79;88.03;99369.63;5013151;28;20557;-73
2022/11/21 02:24:17;;;;;;;13.47;12.07;;;;;;;0.75;87.86;99359.31;5013193;28;20209;-73
2022/11/21 02:26:47;;;;;;;12.83;11.73;;;;;;;0.71;87.73;99350.75;5013146;28;20233;-73
2022/11/21 02:29:13;;;;;;;12.90;11.60;;;;;;;0.75;88.27;99347.38;5013037;28;20684;-73
2022/11/21 02:31:40;;;;;;;13.33;11.93;;;;;;;0.88;88.33;99352.53;5013100;28;20219;-73
2022/11/21 02:34:06;;;;;;;13.07;11.83;;;;;;;0.92;86.89;99373.09;5013170;28;20204;-73
2022/11/21 02:36:43;;;;;;;14.17;12.87;;;;;;;0.93;87.80;99373.94;5012885;28;20248;-73
2022/11/21 02:39:15;;;;;;;13.87;12.47;;;;;;;0.82;88.04;99375.63;5012823;28;20314;-73
2022/11/21 02:41:48;;;;;;;14.77;13.40;;;;;;;0.69;88.12;99378.13;5012587;28;20588;-73
2022/11/21 02:44:23;;;;;;;13.67;12.40;;;;;;;0.67;88.08;99351.59;5013085;28;20213;-73
2022/11/21 02:46:51;;;;;;;15.97;13.00;;;;;;;0.67;88.17;99358.44;5013023;28;20240;-73
2022/11/21 02:49:28;;;;;;;12.90;11.60;;;;;;;0.68;88.40;99344.75;5012824;28;20214;-73
2022/11/21 02:51:54;;;;;;;13.13;11.93;;;;;;;0.60;89.10;99347.31;5012490;28;20209;-72
2022/11/21 02:54:21;;;;;;;13.93;12.53;;;;;;;0.59;88.72;99356.72;5012465;28;20681;-73
2022/11/21 02:56:48;;;;;;;14.97;13.57;;;;;;;0.44;88.41;99358.34;5012834;28;20228;-73
2022/11/21 02:59:15;;;;;;;14.77;13.17;;;;;;;0.43;89.03;99354.06;5012713;28;20250;-73
2022/11/21 03:01:41;;;;;;;14.50;13.00;;;;;;;0.25;88.61;99354.84;5012305;28;20206;-73
2022/11/21 03:04:08;;;;;;;14.40;13.03;;;;;;;0.28;89.22;99342.88;5012560;28;20575;-73
2022/11/21 03:06:34;;;;;;;13.77;12.47;;;;;;;0.41;90.00;99335.25;5012218;28;20239;-73
2022/11/21 03:09:01;;;;;;;14.57;13.07;;;;;;;0.46;89.43;99336.97;5012574;28;20241;-73
2022/11/21 03:11:27;;;;;;;14.50;13.20;;;;;;;0.48;89.58;99342.97;5012258;28;20215;-73
2022/11/21 03:13:55;;;;;;;14.53;13.13;;;;;;;0.47;89.09;99342.97;5012288;28;20711;-73
2022/11/21 03:16:22;;;;;;;14.10;12.73;;;;;;;0.50;88.92;99340.41;5012453;28;20236;-73
2022/11/21 03:18:48;;;;;;;14.43;12.93;;;;;;;0.53;89.45;99342.97;5012306;28;20231;-73
2022/11/21 03:21:14;;;;;;;14.40;13.03;;;;;;;0.57;89.25;99347.28;5011964;28;20575;-73
2022/11/21 03:23:41;;;;;;;13.90;12.57;;;;;;;0.62;88.38;99355.88;5012446;28;20211;-73
2022/11/21 03:26:07;;;;;;;14.00;12.63;;;;;;;0.64;88.17;99379.84;5012334;28;20235;-73
2022/11/21 03:28:34;;;;;;;13.03;11.80;;;;;;;0.69;87.77;99395.25;5012176;28;20681;-73
2022/11/21 03:31:02;;;;;;;14.00;12.73;;;;;;;0.73;86.94;99410.72;5011864;28;20573;-73
2022/11/21 03:33:28;;;;;;;14.13;12.73;;;;;;;0.69;87.31;99423.50;5012171;28;20823;-73
2022/11/21 03:35:55;;;;;;;11.97;10.87;;;;;;;0.67;87.48;99428.63;5011935;28;20223;-73
2022/11/21 03:38:21;;;;;;;12.30;11.20;;;;;;;0.71;87.64;99434.66;5012238;28;20238;-73
2022/11/21 03:40:48;;;;;;;13.63;12.37;;;;;;;0.74;86.79;99434.66;5011909;28;20222;-73
2022/11/21 03:43:14;;;;;;;14.83;13.23;;;;;;;0.79;86.96;99443.25;5012100;28;20208;-73
2022/11/21 03:45:40;;;;;;;14.77;12.90;;;;;;;0.82;86.64;99456.13;5012078;28;20304;-73
2022/11/21 03:48:08;;;;;;;12.70;11.50;;;;;;;0.88;86.80;99474.13;5012026;28;20232;-73
2022/11/21 03:50:35;;;;;;;13.20;11.87;;;;;;;0.79;86.05;99503.19;5011559;28;20212;-73
2022/11/21 03:53:01;;;;;;;13.30;12.00;;;;;;;0.88;85.36;99512.66;5012164;28;20587;-73
2022/11/21 03:55:28;;;;;;;12.90;11.73;;;;;;;0.80;86.07;99529.75;5012019;28;20211;-73
2022/11/21 03:57:54;;;;;;;12.80;11.50;;;;;;;0.66;86.38;99536.50;5011993;28;20233;-73
2022/11/21 04:00:21;;;;;;;13.47;12.17;;;;;;;0.66;86.27;99531.38;5011571;28;20208;-73
2022/11/21 04:02:47;;;;;;;14.80;13.27;;;;;;;0.70;85.85;99528.81;5011884;28;20208;-73
2022/11/21 04:05:16;;;;;;;14.43;12.67;;;;;;;0.67;86.57;99522.81;5011928;28;20228;-73
2022/11/21 04:07:42;;;;;;;14.97;13.57;;;;;;;0.79;85.54;99523.75;5011953;28;20220;-73
2022/11/21 04:10:09;;;;;;;15.37;13.30;;;;;;;0.69;85.17;99536.50;5011707;28;20214;-73
2022/11/21 04:12:36;;;;;;;14.63;13.20;;;;;;;0.54;85.72;99548.41;5011926;28;20212;-73
2022/11/21 04:15:03;;;;;;;13.90;12.60;;;;;;;0.58;86.01;99536.44;5011736;28;20207;-73
2022/11/21 04:17:30;;;;;;;14.13;12.67;;;;;;;0.58;86.32;99537.31;5011528;28;20234;-73
2022/11/21 04:19:57;;;;;;;14.63;13.33;;;;;;;0.59;85.96;99545.84;5015216;28;20212;-73
2022/11/21 04:22:25;;;;;;;14.87;13.53;;;;;;;0.56;85.29;99546.72;5015770;28;20584;-73
2022/11/21 04:24:51;;;;;;;14.17;12.60;;;;;;;0.53;85.33;99550.94;5015667;28;20218;-73
2022/11/21 04:27:18;;;;;;;14.33;12.83;;;;;;;0.50;85.22;99562.06;5015482;28;20227;-73
2022/11/21 04:29:44;;;;;;;15.80;13.83;;;;;;;0.45;85.62;99565.44;5015281;28;20203;-73
2022/11/21 04:32:10;;;;;;;14.70;12.57;;;;;;;0.39;85.12;99568.81;5015046;28;20212;-73
2022/11/21 04:34:38;;;;;;;16.23;13.00;;;;;;;0.38;84.70;99582.50;5015464;28;20204;-73
2022/11/21 04:37:04;;;;;;;15.30;13.80;;;;;;;0.37;85.29;99584.19;5015274;28;20227;-73
2022/11/21 04:39:32;;;;;;;15.50;13.93;;;;;;;0.33;85.01;99584.16;5015222;28;20232;-73
2022/11/21 04:41:59;;;;;;;14.17;12.40;;;;;;;0.35;84.83;99588.47;5014968;28;20207;-73
2022/11/21 04:44:27;;;;;;;13.60;12.30;;;;;;;0.30;84.38;99591.88;5015239;28;20211;-73
2022/11/21 04:46:53;;;;;;;14.63;13.23;;;;;;;0.27;83.91;99595.25;5014886;28;20254;-73
2022/11/21 04:49:20;;;;;;;16.27;14.67;;;;;;;0.21;84.17;99605.44;5015219;28;20234;-73
2022/11/21 04:51:46;;;;;;;15.53;13.00;;;;;;;0.12;84.04;99608.81;5014747;28;20211;-73
2022/11/21 04:54:13;;;;;;;14.13;12.83;;;;;;;-0.06;84.65;99617.19;5015040;28;20211;-73
2022/11/21 04:56:41;;;;;;;15.23;13.63;;;;;;;-0.08;85.25;99608.59;5014679;28;20600;-73
2022/11/21 04:59:07;;;;;;;15.97;13.63;;;;;;;-0.07;85.06;99599.19;5014849;28;20226;-73
2022/11/21 05:01:34;;;;;;;14.87;13.37;;;;;;;-0.13;85.15;99599.97;5014626;28;20218;-73
2022/11/21 05:04:00;;;;;;;14.33;13.03;;;;;;;-0.12;84.71;99591.47;5014937;28;20211;-73
2022/11/21 05:06:27;;;;;;;13.23;12.03;;;;;;;-0.14;85.46;99592.28;5028719;22;20238;-82
2022/11/21 05:08:53;;;;;;;13.13;11.93;;;;;;;-0.14;85.01;99582.88;5018686;28;20213;-80
2022/11/21 05:14:05;;;;;;;14.10;12.70;;;;;;;-0.18;85.35;99568.28;5021159;28;20281;-81
2022/11/21 05:16:32;;;;;;;13.93;12.63;;;;;;;-0.19;85.30;99564.03;5017676;28;20232;-80
2022/11/21 05:18:58;;;;;;;14.23;12.83;;;;;;;-0.19;85.69;99556.31;5017975;28;20223;-79
2022/11/21 05:21:25;;;;;;;13.90;12.50;;;;;;;-0.23;85.82;99552.88;5017877;28;20239;-80
2022/11/21 05:23:52;;;;;;;13.23;11.93;;;;;;;-0.20;85.15;99557.16;5018312;28;20209;-80
2022/11/21 05:26:18;;;;;;;13.27;11.93;;;;;;;-0.25;85.40;99556.25;5018287;28;20228;-79
2022/11/21 05:28:46;;;;;;;12.60;11.40;;;;;;;-0.25;85.77;99556.25;5017986;28;20214;-80
2022/11/21 05:31:14;;;;;;;12.57;11.27;;;;;;;-0.34;85.70;99559.56;5017075;28;20211;-80
2022/11/21 05:33:40;;;;;;;14.97;12.07;;;;;;;-0.36;85.85;99551.00;5018232;28;20207;-78
2022/11/21 05:36:07;;;;;;;13.77;12.47;;;;;;;-0.37;85.87;99548.44;5017691;28;20234;-79
2022/11/21 05:38:33;;;;;;;12.33;10.93;;;;;;;-0.35;86.06;99539.91;5017801;28;20247;-77
2022/11/21 05:41:00;;;;;;;12.67;11.37;;;;;;;-0.46;86.41;99541.50;5017346;28;20234;-81
2022/11/21 05:46:10;;;;;;;13.37;11.07;;;;;;;-0.42;86.60;99521.06;5017755;28;20277;-80
2022/11/21 05:48:38;;;;;;;12.53;11.33;;;;;;;-0.46;86.87;99503.03;5017644;28;20204;-81
2022/11/21 05:51:07;;;;;;;11.63;10.60;;;;;;;-0.46;86.62;99501.34;5017314;28;20572;-80
2022/11/21 05:53:34;;;;;;;12.37;11.17;;;;;;;-0.51;87.27;99502.16;5017672;28;20608;-78
2022/11/21 05:56:04;;;;;;;12.90;11.70;;;;;;;-0.51;87.01;99492.75;5017372;28;20231;-80
2022/11/21 05:58:30;;;;;;;12.63;11.43;;;;;;;-0.46;87.69;99483.38;5018461;28;20227;-79
2022/11/21 06:00:57;;;;;;;11.70;10.60;;;;;;;-0.48;87.23;99474.81;5017418;28;20203;-79
2022/11/21 06:03:30;;;;;;;12.70;11.40;;;;;;;-0.46;87.40;99472.28;5017079;28;20213;-80
2022/11/21 06:06:03;;;;;;;13.50;12.20;;;;;;;-0.47;87.97;99462.91;5016856;28;20241;-80
2022/11/21 06:08:31;;;;;;;13.93;12.50;;;;;;;-0.43;87.88;99451.81;5017784;28;20205;-78
2022/11/21 06:10:58;;;;;;;14.30;13.00;;;;;;;-0.45;87.99;99461.19;5016762;28;20218;-80
2022/11/21 06:13:24;;;;;;;13.93;12.60;;;;;;;-0.42;88.11;99456.09;5017236;28;20222;-78
2022/11/21 06:15:53;;;;;;;15.17;13.57;;;;;;;-0.37;87.34;99461.28;5016865;28;20235;-80
2022/11/21 06:18:21;;;;;;;13.67;12.37;;;;;;;-0.33;87.87;99461.31;5017476;28;20233;-81
2022/11/21 06:20:47;;;;;;;14.57;13.17;;;;;;;-0.39;87.33;99468.94;5016854;28;20226;-80
2022/11/21 06:23:15;;;;;;;17.30;14.33;;;;;;;-0.31;88.03;99471.59;5017279;28;20211;-80
2022/11/21 06:25:43;;;;;;;15.47;13.97;;;;;;;-0.32;87.75;99473.28;5017224;28;20214;-81
2022/11/21 06:28:09;;;;;;;14.57;13.07;;;;;;;-0.35;88.08;99480.94;5017111;28;20680;-80
2022/11/21 06:30:36;;;;;;;15.00;13.37;;;;;;;-0.32;87.50;99482.66;5016406;28;20203;-79
2022/11/21 06:33:04;;;;;;;16.83;12.97;;;;;;;-0.35;87.41;99478.38;5016792;28;20214;-81
2022/11/21 06:35:31;;;;;;;14.47;12.97;;;;;;;-0.41;87.61;99483.47;5018207;28;20263;-79
2022/11/21 06:38:00;;;;;;;13.93;12.20;;;;;;;-0.38;87.95;99470.66;5017177;28;20202;-79
2022/11/21 06:40:29;;;;;;;13.40;12.03;;;;;;;-0.49;88.17;99478.25;5016077;28;20212;-81
2022/11/21 06:42:56;;;;;;;14.73;12.37;;;;;;;-0.59;88.75;99481.56;5016508;28;20673;-80
2022/11/21 06:45:22;;;;;;;14.90;13.33;;;;;;;-0.57;88.39;99464.50;5016636;28;20271;-80
2022/11/21 06:47:51;;;;;;;16.03;14.33;;;;;;;-0.52;88.48;99470.50;5016273;28;20209;-80
2022/11/21 06:50:17;;;;;;;14.43;13.03;;;;;;;-0.53;88.14;99478.22;5014700;28;20232;-79
2022/11/21 06:52:44;;;;;;;14.30;12.87;;;;;;;-0.56;88.41;99484.16;5016003;28;20649;-79
2022/11/21 06:55:11;;;;;;;14.90;13.47;;;;;;;-0.52;88.15;99490.16;5015725;28;20581;-80
2022/11/21 06:57:38;;;;;;;15.07;13.47;;;;;;;-0.50;88.02;99494.47;5015967;28;20231;-80
2022/11/21 07:00:06;;;;;;;14.87;13.27;;;;;;;-0.53;87.81;99499.56;5015470;28;20239;-81
2022/11/21 07:02:33;;;;;;;15.53;13.50;;;;;;;-0.60;87.41;99508.88;5015275;28;20673;-81
2022/11/21 07:04:59;;;;;;;13.53;12.13;;;;;;;-0.66;87.66;99516.50;5017030;28;20212;-80
2022/11/21 07:07:25;;;;;;;14.60;13.10;;;;;;;-0.69;88.01;99515.63;5017346;28;20237;-80
2022/11/21 07:09:52;;;;;;;14.20;12.30;;;;;;;-0.65;87.20;99514.81;5016924;28;20203;-80
2022/11/21 07:15:04;;;;;;;14.90;13.50;;;;;;;-0.77;87.01;99538.59;5017169;28;20781;-81
2022/11/21 07:17:31;;;;;;;16.27;13.57;;;;;;;-0.80;87.13;99541.09;5017242;28;20224;-83
2022/11/21 07:19:57;;;;;;;16.33;13.77;;;;;;;-0.78;87.42;99539.41;5016872;28;20226;-82
2022/11/21 07:22:23;;;;;;;16.00;14.40;;;;;;;-0.85;87.60;99550.47;5017017;28;20214;-81
2022/11/21 07:24:50;;;;;;;15.40;13.90;;;;;;;-0.90;87.25;99558.06;5017345;28;20216;-80
2022/11/21 07:27:16;;;;;;;15.47;13.90;;;;;;;-0.90;87.52;99552.94;5016731;28;20231;-81
2022/11/21 07:29:43;;;;;;;16.00;14.33;;;;;;;-0.81;87.27;99550.50;5016971;28;20199;-82
2022/11/21 07:32:11;;;;;;;15.37;13.77;;;;;;;-0.83;87.75;99546.22;5016079;28;20212;-79
2022/11/21 07:34:37;;;;;;;15.23;13.40;;;;;;;-0.83;87.57;99546.22;5016375;28;20578;-80
2022/11/21 07:37:03;;;;;;;14.90;13.43;;;;;;;-0.88;87.55;99545.28;5016937;28;20226;-83
2022/11/21 07:39:30;;;;;;;15.20;13.73;;;;;;;-0.89;88.23;99533.28;5014944;28;20230;-78
2022/11/21 07:41:56;;;;;;;16.50;14.73;;;;;;;-0.87;87.79;99526.53;5014332;28;20704;-79
2022/11/21 07:44:23;;;;;;;15.30;13.73;;;;;;;-0.88;87.55;99523.06;5016268;28;20206;-80
2022/11/21 07:46:49;;;;;;;14.57;13.17;;;;;;;-0.86;87.31;99520.53;5015419;28;20230;-80
2022/11/21 07:49:17;;;;;;;14.87;13.27;;;;;;;-0.88;86.85;99527.34;5015655;28;20570;-79
2022/11/21 07:51:43;;;;;;;15.13;13.63;;;;;;;-0.85;86.32;99538.50;5014737;28;20207;-78
2022/11/21 07:54:10;;;;;;;17.83;13.10;;;;;;;-0.91;86.46;99558.91;5016482;28;20296;-79
2022/11/21 07:56:36;;;;;;;17.23;13.63;;;;;;;-0.91;86.39;99574.28;5017998;28;20222;-79
2022/11/21 07:59:03;;;;;;;15.73;14.10;;;;;;;-0.82;86.19;99578.66;5018366;28;20222;-79
2022/11/21 08:01:29;;;;;;;20.80;16.00;;;;;;;-0.95;87.12;99572.53;5018432;28;20257;-79
2022/11/21 08:03:56;;;;;;;20.40;17.20;;;;;;;-0.87;87.91;99557.25;5018923;28;20207;-80
2022/11/21 08:06:24;;;;;;;25.87;18.17;;;;;;;-0.86;87.80;99541.88;5017911;28;20233;-80
2022/11/21 08:08:52;;;;;;;28.47;18.23;;;;;;;-0.94;88.93;99533.25;5018235;28;20259;-80
2022/11/21 08:11:18;;;;;;;22.43;17.77;;;;;;;-0.91;89.21;99500.00;5017841;28;20732;-79
2022/11/21 08:13:45;;;;;;;21.73;16.70;;;;;;;-0.85;89.43;99486.41;5018113;28;20233;-79
2022/11/21 08:16:11;;;;;;;25.63;16.90;;;;;;;-0.83;88.80;99490.69;5017674;28;20230;-80
2022/11/21 08:18:38;;;;;;;29.13;18.47;;;;;;;-0.87;89.76;99473.56;5019047;28;20203;-81
2022/11/21 08:21:05;;;;;;;29.33;18.70;;;;;;;-0.78;89.68;99454.03;5017585;28;20211;-78
2022/11/21 08:23:33;;;;;;;35.93;20.93;;;;;;;-0.86;90.43;99448.81;5018498;28;20216;-79
2022/11/21 08:25:59;;;;;;;34.13;20.67;;;;;;;-0.84;90.50;99442.00;5017219;28;20231;-80
2022/11/21 08:28:25;;;;;;;35.03;21.53;;;;;;;-0.77;90.49;99431.00;5017267;28;20221;-79
2022/11/21 08:30:52;;;;;;;37.33;20.50;;;;;;;-0.77;90.54;99432.66;5016561;28;20207;-79
2022/11/21 08:33:19;;;;;;;40.87;21.77;;;;;;;-0.82;90.24;99432.63;5017309;28;20207;-79
2022/11/21 08:35:45;;;;;;;38.03;20.23;;;;;;;-0.91;90.87;99419.72;5017485;28;20237;-79
2022/11/21 08:38:11;;;;;;;37.90;20.90;;;;;;;-0.78;91.58;99407.91;5017391;28;20206;-79
2022/11/21 08:40:40;;;;;;;35.67;18.93;;;;;;;-0.71;90.59;99412.25;5017739;28;20227;-79
2022/11/21 08:43:07;;;;;;;35.67;19.47;;;;;;;-0.74;90.79;99415.63;5019139;28;20214;-79
2022/11/21 08:45:35;;;;;;;29.77;17.83;;;;;;;-0.75;90.97;99413.03;5020082;28;20211;-78
2022/11/21 08:48:02;;;;;;;29.67;18.13;;;;;;;-0.96;91.75;99406.88;5019971;28;20220;-79
2022/11/21 08:50:30;;;;;;;33.10;17.77;;;;;;;-0.83;92.26;99385.66;5018306;28;20203;-79
2022/11/21 08:53:00;;;;;;;29.23;18.73;;;;;;;-0.84;92.00;99388.19;5018640;28;20228;-80
2022/11/21 08:55:26;;;;;;;24.90;16.87;;;;;;;-0.85;92.27;99376.25;5019224;28;20575;-79
2022/11/21 08:57:54;;;;;;;29.37;17.53;;;;;;;-0.75;92.07;99372.94;5020462;28;20203;-79
2022/11/21 09:00:20;;;;;;;22.63;16.87;;;;;;;-0.65;91.83;99389.25;5018077;28;20230;-80
2022/11/21 09:02:47;;;;;;;22.30;15.53;;;;;;;-0.68;91.78;99395.19;5017804;28;20214;-79
2022/11/21 09:05:13;;;;;;;19.67;16.43;;;;;;;-0.72;91.69;99392.59;5018431;28;20205;-79
2022/11/21 09:07:41;;;;;;;25.45;18.67;;;;;;;-0.70;92.05;99384.06;5018156;28;20494;-80
2022/11/21 09:10:08;;;;;;;25.10;16.63;;;;;;;-0.76;92.05;99378.88;5017214;28;20202;-79
2022/11/21 09:12:34;;;;;;;21.30;15.83;;;;;;;-0.73;92.68;99384.06;5018064;28;20584;-81
2022/11/21 09:18:06;;;;;;;18.13;13.97;;;;;;;-0.62;92.27;99376.44;5018283;28;20303;-79
2022/11/21 09:20:38;;;;;;;19.03;13.03;;;;;;;-0.72;92.43;99390.03;5018752;28;20273;-79
2022/11/21 09:23:05;;;;;;;15.17;12.50;;;;;;;-0.67;92.51;99384.09;5019225;28;20214;-79
2022/11/21 09:25:31;;;;;;;14.97;12.03;;;;;;;-0.63;92.71;99356.81;5020268;28;20593;-80
2022/11/21 09:27:59;;;;;;;17.73;13.53;;;;;;;-0.56;92.82;99361.13;5019573;28;20708;-79
2022/11/21 09:30:27;;;;;;;12.87;11.03;;;;;;;-0.52;91.91;99370.56;5018261;28;20234;-79
2022/11/21 09:32:54;;;;;;;19.03;12.57;;;;;;;-0.51;91.98;99377.41;5021432;28;20210;-79
2022/11/21 09:35:20;;;;;;;15.00;12.27;;;;;;;-0.38;92.07;99383.47;5020920;28;20215;-81
2022/11/21 09:37:47;;;;;;;13.87;12.10;;;;;;;-0.42;nan;99384.31;5019658;28;20227;-80
2022/11/21 09:40:16;;;;;;;15.00;12.47;;;;;;;-0.37;91.62;99397.19;5019520;28;20238;-80
2022/11/21 09:43:02;;;;;;;12.53;11.23;;;;;;;-0.29;91.21;99410.91;5018599;28;20584;-81
2022/11/21 09:45:34;;;;;;;15.03;12.20;;;;;;;-0.35;90.63;99426.25;5017939;28;20207;-81
2022/11/21 09:48:03;;;;;;;15.33;12.10;;;;;;;-0.36;91.27;99422.81;5019565;28;20202;-80
2022/11/21 09:50:34;;;;;;;14.87;12.23;;;;;;;-0.42;91.44;99426.22;5021637;28;20204;-81
2022/11/21 09:53:05;;;;;;;14.10;11.40;;;;;;;-0.45;91.58;99417.63;5020447;28;20206;-81
2022/11/21 09:55:41;;;;;;;13.07;11.50;;;;;;;-0.46;91.87;99409.06;5021860;28;20263;-81
2022/11/21 09:58:19;;;;;;;15.88;14.38;;;;;;;-0.34;91.43;99399.75;5025568;28;20465;-80
2022/11/21 10:00:46;;;;;;;13.67;12.03;;;;;;;-0.42;92.09;99398.00;5024130;28;20768;-80
2022/11/21 10:03:13;;;;;;;14.40;11.97;;;;;;;-0.34;91.31;99402.31;5032120;28;20190;-79
2022/11/21 10:05:45;;;;;;;11.50;10.30;;;;;;;-0.21;91.73;99397.31;5029628;28;20207;-80
2022/11/21 10:08:23;;;;;;;15.35;14.05;;;;;;;-0.17;90.65;99418.72;5029046;28;20439;-80
2022/11/21 10:10:54;;;;;;;13.43;12.13;;;;;;;-0.23;90.80;99416.94;5028435;28;20209;-79
2022/11/21 10:13:34;;;;;;;12.93;11.63;;;;;;;-0.17;91.03;99423.84;5029512;28;20209;-79
2022/11/21 10:16:12;;;;;;;11.40;10.20;;;;;;;-0.17;91.40;99415.28;5028430;28;20224;-79
2022/11/21 10:19:05;;;;;;;11.37;10.27;;;;;;;0.01;90.10;99427.41;5022645;28;20218;-78
2022/11/21 10:21:48;;;;;;;10.43;9.53;;;;;;;-0.25;90.16;99443.44;5018438;28;20210;-80
2022/11/21 10:24:30;;;;;;;19.97;10.93;;;;;;;-0.05;90.85;99439.31;5020328;28;20203;-79
2022/11/21 10:27:00;;;;;;;10.03;8.93;;;;;;;-0.17;90.03;99440.94;5020555;28;20231;-80
2022/11/21 10:29:32;;;;;;;10.27;9.17;;;;;;;-0.28;90.81;99449.41;5021251;28;20593;-79
2022/11/21 10:32:11;;;;;;;9.90;8.90;;;;;;;-0.34;91.15;99438.22;5018250;28;20593;-79
2022/11/21 10:34:38;;;;;;;11.50;9.80;;;;;;;-0.42;92.05;99417.63;5016905;28;20212;-77
2022/11/21 10:37:13;;;;;;;11.10;9.77;;;;;;;-0.14;92.08;99400.78;5017732;28;20239;-79
2022/11/21 10:39:43;;;;;;;9.73;8.83;;;;;;;-0.12;90.74;99417.06;5016506;28;20240;-79
2022/11/21 10:42:17;;;;;;;9.07;8.10;;;;;;;0.05;90.46;99424.84;5021418;28;20836;-78
2022/11/21 10:47:36;;;;;;;10.03;9.03;;;;;;;0.17;89.35;99442.03;5024224;28;20634;-78
2022/11/21 10:50:23;;;;;;;8.70;7.87;;;;;;;-0.11;89.28;99459.78;5024729;28;20205;-78
2022/11/21 10:52:53;;;;;;;8.13;7.33;;;;;;;0.08;89.87;99444.53;5023075;28;20203;-79
2022/11/21 10:55:19;;;;;;;11.33;8.53;;;;;;;0.24;89.34;99442.94;5024646;28;20208;-79
2022/11/21 10:57:47;;;;;;;9.98;9.00;;;;;;;0.34;89.22;99440.44;5033548;28;20432;-79
2022/11/21 11:00:21;;;;;;;8.47;7.77;;;;;;;0.46;88.15;99456.78;5033974;28;20229;-76
2022/11/21 11:03:16;;;;;;;7.57;6.87;;;;;;;0.50;88.36;99479.91;5033520;28;20688;-78
2022/11/21 11:05:55;;;;;;;7.43;6.73;;;;;;;0.22;88.20;99498.53;5035051;28;20627;-78
2022/11/21 11:08:22;;;;;;;7.20;6.50;;;;;;;0.19;88.57;99489.94;5043110;22;20234;-80
2022/11/21 11:11:03;;;;;;;7.63;6.93;;;;;;;0.08;88.49;99499.28;5030254;28;20197;-81
2022/11/21 11:13:34;;;;;;;7.07;6.37;;;;;;;-0.01;88.31;99494.06;5033376;28;20193;-83
2022/11/21 11:16:05;;;;;;;7.10;6.40;;;;;;;0.09;88.97;99471.91;5030752;28;20209;-83
2022/11/21 11:18:35;;;;;;;7.63;6.93;;;;;;;0.29;88.23;99467.78;5039552;28;20235;-82
2022/11/21 11:21:15;;;;;;;7.57;6.87;;;;;;;0.17;87.89;99483.09;5041911;28;20215;-82
2022/11/21 11:23:42;;;;;;;7.80;7.10;;;;;;;0.21;88.17;99484.84;5050943;28;20214;-83
2022/11/21 11:26:20;;;;;;;8.30;7.50;;;;;;;0.30;87.37;99481.50;5053233;28;20191;-79
2022/11/21 11:28:46;;;;;;;8.20;7.47;;;;;;;0.45;87.36;99481.56;5026892;28;20245;-80
2022/11/21 11:31:13;;;;;;;7.93;7.13;;;;;;;0.55;87.47;99483.34;5026088;28;20202;-80
2022/11/21 11:33:49;;;;;;;9.87;9.17;;;;;;;0.71;86.51;99497.13;5025373;28;20450;-84
2022/11/21 11:36:26;;;;;;;8.60;7.90;;;;;;;0.78;86.94;99503.19;5023114;28;20441;-83
2022/11/21 11:38:56;;;;;;;8.57;7.80;;;;;;;0.79;86.40;99507.47;5031659;28;20227;-83
2022/11/21 11:47:30;;;;;;;7.83;7.13;;;;;;;0.83;85.58;99527.16;5008645;28;20282;-82
2022/11/21 11:50:10;;;;;;;7.23;6.53;;;;;;;0.89;85.28;99529.81;5011368;28;20283;-81